sensor_id;sensor_type;location;lat;lon;timestamp;P1;durP1;ratioP1;P2;durP2;ratioP2
70592;SDS011;58294;42.988;20.338;2023-12-22T00:02:25;83.00;;;69.32;;
70592;SDS011;58294;42.988;20.338;2023-12-22T00:04:53;81.63;;;64.90;;
70592;SDS011;58294;42.988;20.338;2023-12-22T00:07:19;208.10;;;150.95;;
70592;SDS011;58294;42.988;20.338;2023-12-22T00:09:45;166.27;;;113.35;;
70592;SDS011;58294;42.988;20.338;2023-12-22T00:12:11;168.50;;;104.03;;
70592;SDS011;58294;42.988;20.338;2023-12-22T00:14:36;406.45;;;247.80;;
70592;SDS011;58294;42.988;20.338;2023-12-22T00:17:05;186.23;;;111.13;;
70592;SDS011;58294;42.988;20.338;2023-12-22T00:19:31;106.65;;;70.55;;
70592;SDS011;58294;42.988;20.338;2023-12-22T00:21:57;142.57;;;99.22;;
70592;SDS011;58294;42.988;20.338;2023-12-22T00:24:23;65.55;;;46.50;;
70592;SDS011;58294;42.988;20.338;2023-12-22T00:26:49;74.32;;;55.10;;
70592;SDS011;58294;42.988;20.338;2023-12-22T00:29:15;59.75;;;47.28;;
70592;SDS011;58294;42.988;20.338;2023-12-22T00:31:41;53.67;;;45.75;;
70592;SDS011;58294;42.988;20.338;2023-12-22T00:34:07;49.88;;;44.45;;
70592;SDS011;58294;42.988;20.338;2023-12-22T00:36:32;46.72;;;41.65;;
70592;SDS011;58294;42.988;20.338;2023-12-22T00:38:58;51.42;;;45.90;;
70592;SDS011;58294;42.988;20.338;2023-12-22T00:41:24;52.40;;;44.92;;
70592;SDS011;58294;42.988;20.338;2023-12-22T00:43:50;60.47;;;49.47;;
70592;SDS011;58294;42.988;20.338;2023-12-22T00:46:15;69.65;;;58.20;;
70592;SDS011;58294;42.988;20.338;2023-12-22T00:48:41;75.45;;;61.45;;
70592;SDS011;58294;42.988;20.338;2023-12-22T00:51:07;86.25;;;68.88;;
70592;SDS011;58294;42.988;20.338;2023-12-22T00:53:33;68.43;;;53.65;;
70592;SDS011;58294;42.988;20.338;2023-12-22T00:55:59;62.92;;;53.13;;
70592;SDS011;58294;42.988;20.338;2023-12-22T00:58:27;54.60;;;45.83;;
70592;SDS011;58294;42.988;20.338;2023-12-22T01:00:54;33.88;;;28.85;;
70592;SDS011;58294;42.988;20.338;2023-12-22T01:03:20;33.38;;;27.23;;
70592;SDS011;58294;42.988;20.338;2023-12-22T01:05:46;30.58;;;25.88;;
70592;SDS011;58294;42.988;20.338;2023-12-22T01:08:12;29.20;;;23.23;;
70592;SDS011;58294;42.988;20.338;2023-12-22T01:10:38;27.38;;;21.52;;
70592;SDS011;58294;42.988;20.338;2023-12-22T01:13:04;20.52;;;16.80;;
70592;SDS011;58294;42.988;20.338;2023-12-22T01:15:30;25.95;;;21.13;;
70592;SDS011;58294;42.988;20.338;2023-12-22T01:17:55;29.52;;;22.77;;
70592;SDS011;58294;42.988;20.338;2023-12-22T01:20:21;59.03;;;46.28;;
70592;SDS011;58294;42.988;20.338;2023-12-22T01:22:47;47.47;;;36.72;;
70592;SDS011;58294;42.988;20.338;2023-12-22T01:25:13;38.97;;;31.65;;
70592;SDS011;58294;42.988;20.338;2023-12-22T01:27:38;51.28;;;35.05;;
70592;SDS011;58294;42.988;20.338;2023-12-22T01:30:04;46.05;;;29.85;;
70592;SDS011;58294;42.988;20.338;2023-12-22T01:32:31;31.58;;;22.55;;
70592;SDS011;58294;42.988;20.338;2023-12-22T01:34:59;27.58;;;22.85;;
70592;SDS011;58294;42.988;20.338;2023-12-22T01:37:29;39.00;;;26.33;;
70592;SDS011;58294;42.988;20.338;2023-12-22T01:39:55;20.67;;;18.42;;
70592;SDS011;58294;42.988;20.338;2023-12-22T01:42:21;37.72;;;23.85;;
70592;SDS011;58294;42.988;20.338;2023-12-22T01:44:46;35.08;;;25.38;;
70592;SDS011;58294;42.988;20.338;2023-12-22T01:47:12;32.00;;;24.30;;
70592;SDS011;58294;42.988;20.338;2023-12-22T01:49:39;31.85;;;24.77;;
70592;SDS011;58294;42.988;20.338;2023-12-22T01:52:06;25.80;;;19.52;;
70592;SDS011;58294;42.988;20.338;2023-12-22T01:54:32;49.45;;;44.08;;
70592;SDS011;58294;42.988;20.338;2023-12-22T01:56:59;41.30;;;37.17;;
70592;SDS011;58294;42.988;20.338;2023-12-22T01:59:26;32.63;;;29.25;;
70592;SDS011;58294;42.988;20.338;2023-12-22T02:01:53;15.52;;;14.00;;
70592;SDS011;58294;42.988;20.338;2023-12-22T02:04:18;12.95;;;10.73;;
70592;SDS011;58294;42.988;20.338;2023-12-22T02:06:45;21.50;;;19.65;;
70592;SDS011;58294;42.988;20.338;2023-12-22T02:09:11;15.85;;;14.43;;
70592;SDS011;58294;42.988;20.338;2023-12-22T02:11:37;10.30;;;9.40;;
70592;SDS011;58294;42.988;20.338;2023-12-22T02:14:04;13.70;;;12.40;;
70592;SDS011;58294;42.988;20.338;2023-12-22T02:16:37;15.18;;;13.75;;
70592;SDS011;58294;42.988;20.338;2023-12-22T02:19:56;14.68;;;13.27;;
70592;SDS011;58294;42.988;20.338;2023-12-22T02:22:07;58.00;;;51.70;;
70592;SDS011;58294;42.988;20.338;2023-12-22T02:24:34;47.42;;;35.25;;
70592;SDS011;58294;42.988;20.338;2023-12-22T02:29:32;16.15;;;14.05;;
70592;SDS011;58294;42.988;20.338;2023-12-22T02:32:04;211.07;;;114.30;;
70592;SDS011;58294;42.988;20.338;2023-12-22T02:34:35;323.20;;;151.00;;
70592;SDS011;58294;42.988;20.338;2023-12-22T02:37:05;96.63;;;51.42;;
70592;SDS011;58294;42.988;20.338;2023-12-22T02:39:34;102.68;;;54.33;;
70592;SDS011;58294;42.988;20.338;2023-12-22T02:42:00;94.65;;;52.42;;
70592;SDS011;58294;42.988;20.338;2023-12-22T02:44:27;145.07;;;86.88;;
70592;SDS011;58294;42.988;20.338;2023-12-22T02:46:53;112.82;;;61.90;;
70592;SDS011;58294;42.988;20.338;2023-12-22T02:49:19;60.58;;;38.88;;
70592;SDS011;58294;42.988;20.338;2023-12-22T02:51:45;28.55;;;24.65;;
70592;SDS011;58294;42.988;20.338;2023-12-22T02:54:10;27.02;;;15.13;;
70592;SDS011;58294;42.988;20.338;2023-12-22T02:56:36;24.67;;;19.95;;
70592;SDS011;58294;42.988;20.338;2023-12-22T02:59:02;20.02;;;17.67;;
70592;SDS011;58294;42.988;20.338;2023-12-22T03:01:28;25.17;;;22.35;;
70592;SDS011;58294;42.988;20.338;2023-12-22T03:03:54;19.75;;;17.67;;
70592;SDS011;58294;42.988;20.338;2023-12-22T03:06:20;30.60;;;27.42;;
70592;SDS011;58294;42.988;20.338;2023-12-22T03:08:45;22.10;;;19.98;;
70592;SDS011;58294;42.988;20.338;2023-12-22T03:11:11;16.25;;;14.48;;
70592;SDS011;58294;42.988;20.338;2023-12-22T03:13:37;28.92;;;26.02;;
70592;SDS011;58294;42.988;20.338;2023-12-22T03:16:03;20.35;;;18.45;;
70592;SDS011;58294;42.988;20.338;2023-12-22T03:18:33;19.80;;;17.75;;
70592;SDS011;58294;42.988;20.338;2023-12-22T03:20:59;15.18;;;13.50;;
70592;SDS011;58294;42.988;20.338;2023-12-22T03:23:25;31.50;;;26.13;;
70592;SDS011;58294;42.988;20.338;2023-12-22T03:25:51;133.43;;;88.50;;
70592;SDS011;58294;42.988;20.338;2023-12-22T03:28:16;229.43;;;144.90;;
70592;SDS011;58294;42.988;20.338;2023-12-22T03:30:42;44.72;;;27.55;;
70592;SDS011;58294;42.988;20.338;2023-12-22T03:33:08;41.35;;;28.75;;
70592;SDS011;58294;42.988;20.338;2023-12-22T03:35:34;43.95;;;31.60;;
70592;SDS011;58294;42.988;20.338;2023-12-22T03:37:59;11.70;;;9.32;;
70592;SDS011;58294;42.988;20.338;2023-12-22T03:40:25;8.55;;;7.68;;
70592;SDS011;58294;42.988;20.338;2023-12-22T03:42:51;9.70;;;8.70;;
70592;SDS011;58294;42.988;20.338;2023-12-22T03:45:17;27.77;;;18.48;;
70592;SDS011;58294;42.988;20.338;2023-12-22T03:47:43;14.27;;;8.00;;
70592;SDS011;58294;42.988;20.338;2023-12-22T03:50:09;6.25;;;5.70;;
70592;SDS011;58294;42.988;20.338;2023-12-22T03:52:34;4.88;;;4.40;;
70592;SDS011;58294;42.988;20.338;2023-12-22T03:55:01;5.00;;;4.50;;
70592;SDS011;58294;42.988;20.338;2023-12-22T03:57:27;4.53;;;4.13;;
70592;SDS011;58294;42.988;20.338;2023-12-22T03:59:53;6.43;;;5.78;;
70592;SDS011;58294;42.988;20.338;2023-12-22T04:02:19;6.55;;;5.75;;
70592;SDS011;58294;42.988;20.338;2023-12-22T04:04:44;9.07;;;7.93;;
70592;SDS011;58294;42.988;20.338;2023-12-22T04:07:10;8.15;;;7.07;;
70592;SDS011;58294;42.988;20.338;2023-12-22T04:09:36;8.57;;;6.65;;
70592;SDS011;58294;42.988;20.338;2023-12-22T04:12:04;7.90;;;7.10;;
70592;SDS011;58294;42.988;20.338;2023-12-22T04:14:30;11.00;;;9.85;;
70592;SDS011;58294;42.988;20.338;2023-12-22T04:16:55;46.92;;;31.27;;
70592;SDS011;58294;42.988;20.338;2023-12-22T04:19:23;109.55;;;69.18;;
70592;SDS011;58294;42.988;20.338;2023-12-22T04:21:49;79.07;;;52.97;;
70592;SDS011;58294;42.988;20.338;2023-12-22T04:24:15;46.28;;;36.45;;
70592;SDS011;58294;42.988;20.338;2023-12-22T04:26:40;50.33;;;39.42;;
70592;SDS011;58294;42.988;20.338;2023-12-22T04:29:06;33.72;;;27.60;;
70592;SDS011;58294;42.988;20.338;2023-12-22T04:31:32;21.48;;;17.40;;
70592;SDS011;58294;42.988;20.338;2023-12-22T04:33:58;23.38;;;19.10;;
70592;SDS011;58294;42.988;20.338;2023-12-22T04:36:23;38.90;;;31.48;;
70592;SDS011;58294;42.988;20.338;2023-12-22T04:38:49;60.58;;;43.17;;
70592;SDS011;58294;42.988;20.338;2023-12-22T04:41:15;54.45;;;39.00;;
70592;SDS011;58294;42.988;20.338;2023-12-22T04:43:41;63.85;;;43.22;;
70592;SDS011;58294;42.988;20.338;2023-12-22T04:46:07;65.07;;;47.45;;
70592;SDS011;58294;42.988;20.338;2023-12-22T04:48:33;63.00;;;47.15;;
70592;SDS011;58294;42.988;20.338;2023-12-22T04:50:58;61.03;;;47.72;;
70592;SDS011;58294;42.988;20.338;2023-12-22T04:53:24;70.25;;;49.95;;
70592;SDS011;58294;42.988;20.338;2023-12-22T04:55:50;77.75;;;51.40;;
70592;SDS011;58294;42.988;20.338;2023-12-22T04:58:16;66.43;;;44.70;;
70592;SDS011;58294;42.988;20.338;2023-12-22T05:00:41;67.15;;;46.90;;
70592;SDS011;58294;42.988;20.338;2023-12-22T05:03:07;76.53;;;62.28;;
70592;SDS011;58294;42.988;20.338;2023-12-22T05:05:33;58.55;;;45.08;;
70592;SDS011;58294;42.988;20.338;2023-12-22T05:07:59;54.80;;;45.33;;
70592;SDS011;58294;42.988;20.338;2023-12-22T05:10:25;49.53;;;35.55;;
70592;SDS011;58294;42.988;20.338;2023-12-22T05:12:50;52.83;;;37.33;;
70592;SDS011;58294;42.988;20.338;2023-12-22T05:15:16;52.05;;;39.08;;
70592;SDS011;58294;42.988;20.338;2023-12-22T05:17:42;53.53;;;43.58;;
70592;SDS011;58294;42.988;20.338;2023-12-22T05:20:08;55.28;;;43.28;;
70592;SDS011;58294;42.988;20.338;2023-12-22T05:22:36;57.65;;;44.42;;
70592;SDS011;58294;42.988;20.338;2023-12-22T05:25:02;60.53;;;46.97;;
70592;SDS011;58294;42.988;20.338;2023-12-22T05:27:28;57.35;;;41.47;;
70592;SDS011;58294;42.988;20.338;2023-12-22T05:29:54;55.65;;;41.83;;
70592;SDS011;58294;42.988;20.338;2023-12-22T05:32:19;63.63;;;49.97;;
70592;SDS011;58294;42.988;20.338;2023-12-22T05:34:45;59.70;;;48.25;;
70592;SDS011;58294;42.988;20.338;2023-12-22T05:37:11;47.75;;;40.03;;
70592;SDS011;58294;42.988;20.338;2023-12-22T05:39:37;55.80;;;41.85;;
70592;SDS011;58294;42.988;20.338;2023-12-22T05:42:03;61.80;;;50.10;;
70592;SDS011;58294;42.988;20.338;2023-12-22T05:44:28;64.43;;;53.63;;
70592;SDS011;58294;42.988;20.338;2023-12-22T05:46:56;68.80;;;53.60;;
70592;SDS011;58294;42.988;20.338;2023-12-22T05:49:22;103.00;;;81.97;;
70592;SDS011;58294;42.988;20.338;2023-12-22T05:51:48;86.93;;;68.47;;
70592;SDS011;58294;42.988;20.338;2023-12-22T05:54:15;82.90;;;63.00;;
70592;SDS011;58294;42.988;20.338;2023-12-22T05:56:42;84.85;;;63.78;;
70592;SDS011;58294;42.988;20.338;2023-12-22T05:59:07;76.38;;;59.10;;
70592;SDS011;58294;42.988;20.338;2023-12-22T06:01:33;89.22;;;70.25;;
70592;SDS011;58294;42.988;20.338;2023-12-22T06:03:59;89.40;;;69.57;;
70592;SDS011;58294;42.988;20.338;2023-12-22T06:06:25;93.32;;;73.07;;
70592;SDS011;58294;42.988;20.338;2023-12-22T06:08:52;107.28;;;91.03;;
70592;SDS011;58294;42.988;20.338;2023-12-22T06:11:18;113.60;;;90.53;;
70592;SDS011;58294;42.988;20.338;2023-12-22T06:13:44;114.90;;;90.40;;
70592;SDS011;58294;42.988;20.338;2023-12-22T06:16:11;123.10;;;94.60;;
70592;SDS011;58294;42.988;20.338;2023-12-22T06:18:40;106.90;;;85.72;;
70592;SDS011;58294;42.988;20.338;2023-12-22T06:21:09;94.13;;;75.97;;
70592;SDS011;58294;42.988;20.338;2023-12-22T06:23:35;94.93;;;73.80;;
70592;SDS011;58294;42.988;20.338;2023-12-22T06:26:01;145.00;;;109.97;;
70592;SDS011;58294;42.988;20.338;2023-12-22T06:28:33;145.93;;;104.28;;
70592;SDS011;58294;42.988;20.338;2023-12-22T06:31:01;199.32;;;138.73;;
70592;SDS011;58294;42.988;20.338;2023-12-22T06:33:28;194.48;;;140.35;;
70592;SDS011;58294;42.988;20.338;2023-12-22T06:35:53;155.48;;;115.43;;
70592;SDS011;58294;42.988;20.338;2023-12-22T06:38:19;168.35;;;134.27;;
70592;SDS011;58294;42.988;20.338;2023-12-22T06:40:45;157.80;;;129.45;;
70592;SDS011;58294;42.988;20.338;2023-12-22T06:43:14;196.35;;;152.48;;
70592;SDS011;58294;42.988;20.338;2023-12-22T06:45:40;134.45;;;107.35;;
70592;SDS011;58294;42.988;20.338;2023-12-22T06:48:06;232.00;;;190.30;;
70592;SDS011;58294;42.988;20.338;2023-12-22T06:50:32;219.30;;;177.30;;
70592;SDS011;58294;42.988;20.338;2023-12-22T06:52:58;245.57;;;194.27;;
70592;SDS011;58294;42.988;20.338;2023-12-22T06:55:24;215.43;;;172.43;;
70592;SDS011;58294;42.988;20.338;2023-12-22T06:57:50;226.00;;;179.75;;
70592;SDS011;58294;42.988;20.338;2023-12-22T07:00:16;196.95;;;150.32;;
70592;SDS011;58294;42.988;20.338;2023-12-22T07:02:42;193.98;;;148.93;;
70592;SDS011;58294;42.988;20.338;2023-12-22T07:07:50;173.52;;;137.00;;
70592;SDS011;58294;42.988;20.338;2023-12-22T07:10:16;216.98;;;169.05;;
70592;SDS011;58294;42.988;20.338;2023-12-22T07:12:42;233.15;;;185.63;;
70592;SDS011;58294;42.988;20.338;2023-12-22T07:15:07;220.23;;;178.50;;
70592;SDS011;58294;42.988;20.338;2023-12-22T07:17:34;228.82;;;184.48;;
70592;SDS011;58294;42.988;20.338;2023-12-22T07:20:00;222.55;;;178.50;;
70592;SDS011;58294;42.988;20.338;2023-12-22T07:22:28;233.90;;;189.82;;
70592;SDS011;58294;42.988;20.338;2023-12-22T07:24:54;219.30;;;178.35;;
70592;SDS011;58294;42.988;20.338;2023-12-22T07:27:20;216.60;;;172.73;;
70592;SDS011;58294;42.988;20.338;2023-12-22T07:29:46;231.50;;;186.68;;
70592;SDS011;58294;42.988;20.338;2023-12-22T07:32:14;219.38;;;175.82;;
70592;SDS011;58294;42.988;20.338;2023-12-22T07:34:40;217.32;;;176.18;;
70592;SDS011;58294;42.988;20.338;2023-12-22T07:37:05;135.77;;;108.45;;
70592;SDS011;58294;42.988;20.338;2023-12-22T07:39:31;130.38;;;98.10;;
70592;SDS011;58294;42.988;20.338;2023-12-22T07:41:57;99.28;;;76.80;;
70592;SDS011;58294;42.988;20.338;2023-12-22T07:44:23;81.05;;;65.38;;
70592;SDS011;58294;42.988;20.338;2023-12-22T07:46:57;101.65;;;82.70;;
70592;SDS011;58294;42.988;20.338;2023-12-22T07:49:24;165.05;;;132.15;;
70592;SDS011;58294;42.988;20.338;2023-12-22T07:51:51;159.52;;;125.22;;
70592;SDS011;58294;42.988;20.338;2023-12-22T07:54:18;126.80;;;100.35;;
70592;SDS011;58294;42.988;20.338;2023-12-22T07:56:43;259.10;;;193.15;;
70592;SDS011;58294;42.988;20.338;2023-12-22T07:59:09;196.40;;;153.70;;
70592;SDS011;58294;42.988;20.338;2023-12-22T08:01:35;216.65;;;165.80;;
70592;SDS011;58294;42.988;20.338;2023-12-22T08:04:01;196.50;;;155.32;;
70592;SDS011;58294;42.988;20.338;2023-12-22T08:06:27;196.38;;;153.63;;
70592;SDS011;58294;42.988;20.338;2023-12-22T08:08:52;179.68;;;145.70;;
70592;SDS011;58294;42.988;20.338;2023-12-22T08:11:19;173.48;;;147.43;;
70592;SDS011;58294;42.988;20.338;2023-12-22T08:13:45;202.23;;;164.18;;
70592;SDS011;58294;42.988;20.338;2023-12-22T08:16:12;250.55;;;200.15;;
70592;SDS011;58294;42.988;20.338;2023-12-22T08:18:38;248.05;;;194.15;;
70592;SDS011;58294;42.988;20.338;2023-12-22T08:21:04;198.85;;;166.07;;
70592;SDS011;58294;42.988;20.338;2023-12-22T08:23:31;225.73;;;186.88;;
70592;SDS011;58294;42.988;20.338;2023-12-22T08:25:57;206.57;;;175.77;;
70592;SDS011;58294;42.988;20.338;2023-12-22T08:28:23;173.93;;;141.95;;
70592;SDS011;58294;42.988;20.338;2023-12-22T08:30:49;148.13;;;124.35;;
70592;SDS011;58294;42.988;20.338;2023-12-22T08:33:15;131.93;;;107.43;;
70592;SDS011;58294;42.988;20.338;2023-12-22T08:35:40;124.00;;;97.85;;
70592;SDS011;58294;42.988;20.338;2023-12-22T08:38:07;145.55;;;125.95;;
70592;SDS011;58294;42.988;20.338;2023-12-22T08:40:33;184.32;;;163.98;;
70592;SDS011;58294;42.988;20.338;2023-12-22T08:42:58;173.57;;;147.90;;
70592;SDS011;58294;42.988;20.338;2023-12-22T08:45:25;152.32;;;129.07;;
70592;SDS011;58294;42.988;20.338;2023-12-22T08:47:54;148.13;;;129.70;;
70592;SDS011;58294;42.988;20.338;2023-12-22T08:50:20;111.57;;;99.57;;
70592;SDS011;58294;42.988;20.338;2023-12-22T08:52:46;147.05;;;124.53;;
70592;SDS011;58294;42.988;20.338;2023-12-22T08:55:12;264.05;;;218.35;;
70592;SDS011;58294;42.988;20.338;2023-12-22T08:57:39;262.80;;;218.65;;
70592;SDS011;58294;42.988;20.338;2023-12-22T09:00:05;260.50;;;219.43;;
70592;SDS011;58294;42.988;20.338;2023-12-22T09:02:31;251.10;;;208.93;;
70592;SDS011;58294;42.988;20.338;2023-12-22T09:04:57;214.38;;;179.52;;
70592;SDS011;58294;42.988;20.338;2023-12-22T09:07:23;234.93;;;197.57;;
70592;SDS011;58294;42.988;20.338;2023-12-22T09:09:49;240.48;;;208.18;;
70592;SDS011;58294;42.988;20.338;2023-12-22T09:12:15;290.67;;;258.88;;
70592;SDS011;58294;42.988;20.338;2023-12-22T09:14:41;261.92;;;233.43;;
70592;SDS011;58294;42.988;20.338;2023-12-22T09:17:07;240.98;;;213.15;;
70592;SDS011;58294;42.988;20.338;2023-12-22T09:19:33;243.57;;;216.30;;
70592;SDS011;58294;42.988;20.338;2023-12-22T09:21:59;284.92;;;254.52;;
70592;SDS011;58294;42.988;20.338;2023-12-22T09:24:25;272.92;;;238.45;;
70592;SDS011;58294;42.988;20.338;2023-12-22T09:26:51;255.55;;;220.13;;
70592;SDS011;58294;42.988;20.338;2023-12-22T09:29:17;255.85;;;209.35;;
70592;SDS011;58294;42.988;20.338;2023-12-22T09:31:43;259.67;;;227.20;;
70592;SDS011;58294;42.988;20.338;2023-12-22T09:34:09;293.67;;;261.40;;
70592;SDS011;58294;42.988;20.338;2023-12-22T09:36:35;284.38;;;251.07;;
70592;SDS011;58294;42.988;20.338;2023-12-22T09:39:00;322.48;;;287.42;;
70592;SDS011;58294;42.988;20.338;2023-12-22T09:41:26;366.83;;;326.85;;
70592;SDS011;58294;42.988;20.338;2023-12-22T09:43:53;208.55;;;182.77;;
70592;SDS011;58294;42.988;20.338;2023-12-22T09:46:22;41.40;;;34.40;;
70592;SDS011;58294;42.988;20.338;2023-12-22T09:48:51;24.58;;;20.58;;
70592;SDS011;58294;42.988;20.338;2023-12-22T09:51:17;20.75;;;18.23;;
70592;SDS011;58294;42.988;20.338;2023-12-22T09:53:45;18.88;;;15.20;;
70592;SDS011;58294;42.988;20.338;2023-12-22T09:56:12;10.95;;;9.80;;
70592;SDS011;58294;42.988;20.338;2023-12-22T09:58:40;7.53;;;6.20;;
70592;SDS011;58294;42.988;20.338;2023-12-22T10:01:06;7.35;;;6.22;;
70592;SDS011;58294;42.988;20.338;2023-12-22T10:03:33;2.97;;;2.67;;
70592;SDS011;58294;42.988;20.338;2023-12-22T10:06:00;109.97;;;97.88;;
70592;SDS011;58294;42.988;20.338;2023-12-22T10:08:26;7.15;;;6.45;;
70592;SDS011;58294;42.988;20.338;2023-12-22T10:10:53;8.27;;;7.47;;
70592;SDS011;58294;42.988;20.338;2023-12-22T10:13:20;4.82;;;4.32;;
70592;SDS011;58294;42.988;20.338;2023-12-22T10:15:46;6.10;;;5.50;;
70592;SDS011;58294;42.988;20.338;2023-12-22T10:18:13;6.93;;;6.20;;
70592;SDS011;58294;42.988;20.338;2023-12-22T10:20:39;17.92;;;12.63;;
70592;SDS011;58294;42.988;20.338;2023-12-22T10:23:05;10.60;;;9.15;;
70592;SDS011;58294;42.988;20.338;2023-12-22T10:25:31;32.15;;;25.67;;
70592;SDS011;58294;42.988;20.338;2023-12-22T10:27:59;16.15;;;11.95;;
70592;SDS011;58294;42.988;20.338;2023-12-22T10:30:27;28.77;;;25.73;;
70592;SDS011;58294;42.988;20.338;2023-12-22T10:32:53;9.38;;;7.30;;
70592;SDS011;58294;42.988;20.338;2023-12-22T10:35:19;8.60;;;6.65;;
70592;SDS011;58294;42.988;20.338;2023-12-22T11:20:45;17.15;;;15.52;;
70592;SDS011;58294;42.988;20.338;2023-12-22T11:23:13;20.00;;;18.10;;
70592;SDS011;58294;42.988;20.338;2023-12-22T11:25:41;13.27;;;12.07;;
70592;SDS011;58294;42.988;20.338;2023-12-22T11:28:08;46.08;;;38.47;;
70592;SDS011;58294;42.988;20.338;2023-12-22T11:30:36;21.83;;;19.63;;
70592;SDS011;58294;42.988;20.338;2023-12-22T11:33:03;22.38;;;16.60;;
70592;SDS011;58294;42.988;20.338;2023-12-22T11:35:30;23.83;;;18.90;;
70592;SDS011;58294;42.988;20.338;2023-12-22T11:37:56;29.73;;;26.05;;
70592;SDS011;58294;42.988;20.338;2023-12-22T11:40:24;23.65;;;21.35;;
70592;SDS011;58294;42.988;20.338;2023-12-22T11:42:50;21.23;;;19.13;;
70592;SDS011;58294;42.988;20.338;2023-12-22T11:45:17;23.23;;;20.92;;
70592;SDS011;58294;42.988;20.338;2023-12-22T11:47:44;20.27;;;18.27;;
70592;SDS011;58294;42.988;20.338;2023-12-22T11:50:11;18.85;;;17.05;;
70592;SDS011;58294;42.988;20.338;2023-12-22T11:52:37;27.15;;;24.00;;
70592;SDS011;58294;42.988;20.338;2023-12-22T11:55:04;48.58;;;43.25;;
70592;SDS011;58294;42.988;20.338;2023-12-22T11:57:32;49.65;;;42.65;;
70592;SDS011;58294;42.988;20.338;2023-12-22T12:00:08;35.72;;;31.95;;
70592;SDS011;58294;42.988;20.338;2023-12-22T12:02:46;36.22;;;32.33;;
70592;SDS011;58294;42.988;20.338;2023-12-22T12:05:19;42.25;;;36.35;;
70592;SDS011;58294;42.988;20.338;2023-12-22T12:07:46;61.28;;;46.08;;
70592;SDS011;58294;42.988;20.338;2023-12-22T12:13:10;44.50;;;39.63;;
70592;SDS011;58294;42.988;20.338;2023-12-22T12:15:40;49.78;;;42.42;;
70592;SDS011;58294;42.988;20.338;2023-12-22T12:18:07;48.80;;;43.47;;
70592;SDS011;58294;42.988;20.338;2023-12-22T12:20:33;57.17;;;50.00;;
70592;SDS011;58294;42.988;20.338;2023-12-22T12:23:03;52.30;;;46.67;;
70592;SDS011;58294;42.988;20.338;2023-12-22T12:25:30;43.03;;;38.47;;
70592;SDS011;58294;42.988;20.338;2023-12-22T12:28:02;69.88;;;61.83;;
70592;SDS011;58294;42.988;20.338;2023-12-22T12:30:28;98.65;;;88.05;;
70592;SDS011;58294;42.988;20.338;2023-12-22T12:32:54;94.78;;;82.32;;
70592;SDS011;58294;42.988;20.338;2023-12-22T12:35:27;75.10;;;67.28;;
70592;SDS011;58294;42.988;20.338;2023-12-22T12:37:54;77.43;;;64.05;;
70592;SDS011;58294;42.988;20.338;2023-12-22T12:40:20;58.30;;;43.05;;
70592;SDS011;58294;42.988;20.338;2023-12-22T12:42:49;63.22;;;47.92;;
70592;SDS011;58294;42.988;20.338;2023-12-22T12:45:20;61.03;;;49.97;;
70592;SDS011;58294;42.988;20.338;2023-12-22T13:10:35;89.47;;;79.95;;
70592;SDS011;58294;42.988;20.338;2023-12-22T13:13:01;91.07;;;79.25;;
70592;SDS011;58294;42.988;20.338;2023-12-22T13:15:28;74.72;;;61.75;;
70592;SDS011;58294;42.988;20.338;2023-12-22T13:17:54;25.65;;;20.67;;
70592;SDS011;58294;42.988;20.338;2023-12-22T13:20:20;28.85;;;25.38;;
70592;SDS011;58294;42.988;20.338;2023-12-22T13:22:46;75.43;;;65.32;;
70592;SDS011;58294;42.988;20.338;2023-12-22T13:25:12;78.32;;;68.38;;
70592;SDS011;58294;42.988;20.338;2023-12-22T13:27:45;51.47;;;41.85;;
70592;SDS011;58294;42.988;20.338;2023-12-22T13:30:15;49.90;;;43.78;;
70592;SDS011;58294;42.988;20.338;2023-12-22T13:33:05;91.68;;;74.90;;
70592;SDS011;58294;42.988;20.338;2023-12-22T13:35:32;58.13;;;48.22;;
70592;SDS011;58294;42.988;20.338;2023-12-22T13:38:01;32.25;;;24.35;;
70592;SDS011;58294;42.988;20.338;2023-12-22T13:40:30;31.20;;;27.88;;
70592;SDS011;58294;42.988;20.338;2023-12-22T13:42:57;60.22;;;51.60;;
70592;SDS011;58294;42.988;20.338;2023-12-22T13:45:26;70.85;;;58.08;;
70592;SDS011;58294;42.988;20.338;2023-12-22T13:47:53;39.33;;;33.13;;
70592;SDS011;58294;42.988;20.338;2023-12-22T13:50:19;40.70;;;33.55;;
70592;SDS011;58294;42.988;20.338;2023-12-22T13:52:48;31.58;;;28.20;;
70592;SDS011;58294;42.988;20.338;2023-12-22T13:55:15;36.13;;;30.67;;
70592;SDS011;58294;42.988;20.338;2023-12-22T13:57:43;35.78;;;30.63;;
70592;SDS011;58294;42.988;20.338;2023-12-22T14:02:46;16.00;;;13.02;;
70592;SDS011;58294;42.988;20.338;2023-12-22T14:05:16;11.43;;;10.15;;
70592;SDS011;58294;42.988;20.338;2023-12-22T14:07:45;46.78;;;35.83;;
70592;SDS011;58294;42.988;20.338;2023-12-22T14:10:12;38.65;;;28.40;;
70592;SDS011;58294;42.988;20.338;2023-12-22T14:12:38;17.63;;;15.50;;
70592;SDS011;58294;42.988;20.338;2023-12-22T14:15:06;19.48;;;15.02;;
70592;SDS011;58294;42.988;20.338;2023-12-22T14:17:32;36.08;;;29.23;;
70592;SDS011;58294;42.988;20.338;2023-12-22T14:19:58;34.63;;;26.08;;
70592;SDS011;58294;42.988;20.338;2023-12-22T14:22:24;32.97;;;27.25;;
70592;SDS011;58294;42.988;20.338;2023-12-22T14:24:51;43.35;;;38.83;;
70592;SDS011;58294;42.988;20.338;2023-12-22T14:27:17;40.78;;;34.58;;
70592;SDS011;58294;42.988;20.338;2023-12-22T14:29:43;37.88;;;33.15;;
70592;SDS011;58294;42.988;20.338;2023-12-22T14:32:11;23.98;;;21.50;;
70592;SDS011;58294;42.988;20.338;2023-12-22T14:34:37;26.60;;;23.75;;
70592;SDS011;58294;42.988;20.338;2023-12-22T14:37:03;28.40;;;25.40;;
70592;SDS011;58294;42.988;20.338;2023-12-22T14:39:29;27.80;;;23.60;;
70592;SDS011;58294;42.988;20.338;2023-12-22T14:41:56;22.33;;;18.90;;
70592;SDS011;58294;42.988;20.338;2023-12-22T14:44:22;22.58;;;20.33;;
70592;SDS011;58294;42.988;20.338;2023-12-22T14:46:48;18.88;;;16.00;;
70592;SDS011;58294;42.988;20.338;2023-12-22T14:49:14;21.05;;;18.20;;
70592;SDS011;58294;42.988;20.338;2023-12-22T14:51:40;19.63;;;16.65;;
70592;SDS011;58294;42.988;20.338;2023-12-22T14:54:06;14.63;;;10.70;;
70592;SDS011;58294;42.988;20.338;2023-12-22T14:56:33;10.45;;;8.65;;
70592;SDS011;58294;42.988;20.338;2023-12-22T14:58:59;23.23;;;19.55;;
70592;SDS011;58294;42.988;20.338;2023-12-22T15:01:25;15.82;;;10.27;;
70592;SDS011;58294;42.988;20.338;2023-12-22T15:03:52;21.05;;;14.98;;
70592;SDS011;58294;42.988;20.338;2023-12-22T15:06:18;23.40;;;16.70;;
70592;SDS011;58294;42.988;20.338;2023-12-22T15:08:44;23.67;;;19.35;;
70592;SDS011;58294;42.988;20.338;2023-12-22T15:11:10;26.60;;;22.15;;
70592;SDS011;58294;42.988;20.338;2023-12-22T15:13:37;29.27;;;25.73;;
70592;SDS011;58294;42.988;20.338;2023-12-22T15:16:04;29.50;;;25.60;;
70592;SDS011;58294;42.988;20.338;2023-12-22T15:18:30;29.55;;;25.85;;